sensor_id;sensor_type;location;lat;lon;timestamp;pressure;altitude;pressure_sealevel;temperature;humidity
113;BME280;45999;48.808;9.182;2024-01-30T00:00:14;99424.09;;;3.69;100.00
113;BME280;45999;48.808;9.182;2024-01-30T00:02:40;99420.94;;;3.66;100.00
113;BME280;45999;48.808;9.182;2024-01-30T00:05:08;99418.84;;;3.60;100.00
113;BME280;45999;48.808;9.182;2024-01-30T00:07:34;99412.94;;;3.58;100.00
113;BME280;45999;48.808;9.182;2024-01-30T00:10:01;99417.47;;;3.56;100.00
113;BME280;45999;48.808;9.182;2024-01-30T00:12:27;99418.03;;;3.59;100.00
113;BME280;45999;48.808;9.182;2024-01-30T00:14:54;99420.81;;;3.58;100.00
113;BME280;45999;48.808;9.182;2024-01-30T00:17:20;99417.34;;;3.57;100.00
113;BME280;45999;48.808;9.182;2024-01-30T00:19:46;99415.00;;;3.54;100.00
113;BME280;45999;48.808;9.182;2024-01-30T00:22:13;99415.28;;;3.51;100.00
113;BME280;45999;48.808;9.182;2024-01-30T00:24:39;99423.88;;;3.44;100.00
113;BME280;45999;48.808;9.182;2024-01-30T00:27:06;99416.28;;;3.41;100.00
113;BME280;45999;48.808;9.182;2024-01-30T00:29:32;99421.25;;;3.44;100.00
113;BME280;45999;48.808;9.182;2024-01-30T00:31:59;99413.50;;;3.52;100.00
113;BME280;45999;48.808;9.182;2024-01-30T00:34:25;99414.34;;;3.43;100.00
113;BME280;45999;48.808;9.182;2024-01-30T00:36:52;99413.63;;;3.41;100.00
113;BME280;45999;48.808;9.182;2024-01-30T00:39:18;99419.75;;;3.41;100.00
113;BME280;45999;48.808;9.182;2024-01-30T00:41:45;99422.78;;;3.37;100.00
113;BME280;45999;48.808;9.182;2024-01-30T00:44:11;99414.75;;;3.38;100.00
113;BME280;45999;48.808;9.182;2024-01-30T00:46:38;99420.00;;;3.38;100.00
113;BME280;45999;48.808;9.182;2024-01-30T00:49:04;99413.69;;;3.31;100.00
113;BME280;45999;48.808;9.182;2024-01-30T00:51:31;99420.59;;;3.32;100.00
113;BME280;45999;48.808;9.182;2024-01-30T00:53:57;99414.34;;;3.24;100.00
113;BME280;45999;48.808;9.182;2024-01-30T00:56:23;99421.97;;;3.27;100.00
113;BME280;45999;48.808;9.182;2024-01-30T00:58:50;99423.63;;;3.28;100.00
113;BME280;45999;48.808;9.182;2024-01-30T01:01:16;99417.25;;;3.30;100.00
113;BME280;45999;48.808;9.182;2024-01-30T01:03:43;99425.31;;;3.29;100.00
113;BME280;45999;48.808;9.182;2024-01-30T01:06:09;99421.66;;;3.39;100.00
113;BME280;45999;48.808;9.182;2024-01-30T01:08:36;99428.75;;;3.39;100.00
113;BME280;45999;48.808;9.182;2024-01-30T01:11:02;99419.16;;;3.38;100.00
113;BME280;45999;48.808;9.182;2024-01-30T01:13:29;99417.78;;;3.43;100.00
113;BME280;45999;48.808;9.182;2024-01-30T01:15:55;99425.53;;;3.45;100.00
113;BME280;45999;48.808;9.182;2024-01-30T01:18:22;99422.91;;;3.35;100.00
113;BME280;45999;48.808;9.182;2024-01-30T01:20:48;99423.75;;;3.36;100.00
113;BME280;45999;48.808;9.182;2024-01-30T01:23:15;99422.09;;;3.35;100.00
113;BME280;45999;48.808;9.182;2024-01-30T01:25:41;99436.63;;;3.39;100.00
113;BME280;45999;48.808;9.182;2024-01-30T01:28:07;99427.06;;;3.38;100.00
113;BME280;45999;48.808;9.182;2024-01-30T01:30:34;99417.81;;;3.34;100.00
113;BME280;45999;48.808;9.182;2024-01-30T01:33:00;99412.84;;;3.31;100.00
113;BME280;45999;48.808;9.182;2024-01-30T01:35:27;99416.16;;;3.23;100.00
113;BME280;45999;48.808;9.182;2024-01-30T01:37:54;99424.44;;;3.19;100.00
113;BME280;45999;48.808;9.182;2024-01-30T01:40:24;99419.50;;;3.16;100.00
113;BME280;45999;48.808;9.182;2024-01-30T01:42:51;99415.19;;;3.15;100.00
113;BME280;45999;48.808;9.182;2024-01-30T01:45:18;99416.16;;;3.14;100.00
113;BME280;45999;48.808;9.182;2024-01-30T01:47:47;99414.91;;;3.18;100.00
113;BME280;45999;48.808;9.182;2024-01-30T01:50:15;99414.91;;;3.18;100.00
113;BME280;45999;48.808;9.182;2024-01-30T01:52:43;99420.75;;;3.12;100.00
113;BME280;45999;48.808;9.182;2024-01-30T01:55:11;99414.09;;;3.08;100.00
113;BME280;45999;48.808;9.182;2024-01-30T01:57:38;99418.13;;;3.12;100.00
113;BME280;45999;48.808;9.182;2024-01-30T02:00:06;99413.00;;;3.10;100.00
113;BME280;45999;48.808;9.182;2024-01-30T02:02:35;99420.03;;;3.10;100.00
113;BME280;45999;48.808;9.182;2024-01-30T02:05:02;99411.22;;;3.11;100.00
113;BME280;45999;48.808;9.182;2024-01-30T02:07:29;99409.97;;;3.05;100.00
113;BME280;45999;48.808;9.182;2024-01-30T02:09:55;99413.97;;;3.00;100.00
113;BME280;45999;48.808;9.182;2024-01-30T02:12:22;99414.09;;;2.89;100.00
113;BME280;45999;48.808;9.182;2024-01-30T02:14:49;99421.16;;;2.98;100.00
113;BME280;45999;48.808;9.182;2024-01-30T02:17:16;99419.47;;;2.97;100.00
113;BME280;45999;48.808;9.182;2024-01-30T02:19:43;99417.41;;;2.91;100.00
113;BME280;45999;48.808;9.182;2024-01-30T02:22:09;99416.44;;;2.92;100.00
113;BME280;45999;48.808;9.182;2024-01-30T02:24:36;99422.09;;;2.97;100.00
113;BME280;45999;48.808;9.182;2024-01-30T02:27:02;99413.41;;;2.96;100.00
113;BME280;45999;48.808;9.182;2024-01-30T02:29:28;99422.66;;;2.91;100.00
113;BME280;45999;48.808;9.182;2024-01-30T02:31:55;99431.78;;;2.87;100.00
113;BME280;45999;48.808;9.182;2024-01-30T02:34:21;99422.25;;;2.86;100.00
113;BME280;45999;48.808;9.182;2024-01-30T02:36:47;99422.50;;;2.83;100.00
113;BME280;45999;48.808;9.182;2024-01-30T02:39:14;99423.50;;;2.82;100.00
113;BME280;45999;48.808;9.182;2024-01-30T02:41:40;99416.88;;;2.87;100.00
113;BME280;45999;48.808;9.182;2024-01-30T02:44:06;99415.34;;;2.85;100.00
113;BME280;45999;48.808;9.182;2024-01-30T02:46:33;99417.25;;;2.83;100.00
113;BME280;45999;48.808;9.182;2024-01-30T02:48:59;99414.63;;;2.83;100.00
113;BME280;45999;48.808;9.182;2024-01-30T02:51:26;99409.69;;;2.80;100.00
113;BME280;45999;48.808;9.182;2024-01-30T02:53:52;99409.94;;;2.77;100.00
113;BME280;45999;48.808;9.182;2024-01-30T02:56:18;99417.16;;;2.75;100.00
113;BME280;45999;48.808;9.182;2024-01-30T02:58:45;99412.56;;;2.77;100.00
113;BME280;45999;48.808;9.182;2024-01-30T03:01:11;99411.88;;;2.75;100.00
113;BME280;45999;48.808;9.182;2024-01-30T03:03:37;99413.38;;;2.68;100.00
113;BME280;45999;48.808;9.182;2024-01-30T03:06:06;99413.38;;;2.68;100.00
113;BME280;45999;48.808;9.182;2024-01-30T03:08:32;99416.28;;;2.65;100.00
113;BME280;45999;48.808;9.182;2024-01-30T03:10:59;99409.38;;;2.64;100.00
113;BME280;45999;48.808;9.182;2024-01-30T03:13:26;99417.38;;;2.62;100.00
113;BME280;45999;48.808;9.182;2024-01-30T03:15:53;99404.81;;;2.56;100.00
113;BME280;45999;48.808;9.182;2024-01-30T03:18:19;99407.44;;;2.56;100.00
113;BME280;45999;48.808;9.182;2024-01-30T03:20:45;99412.56;;;2.58;100.00
113;BME280;45999;48.808;9.182;2024-01-30T03:23:12;99410.47;;;2.52;100.00
113;BME280;45999;48.808;9.182;2024-01-30T03:25:38;99412.53;;;2.48;100.00
113;BME280;45999;48.808;9.182;2024-01-30T03:28:05;99411.72;;;2.48;100.00
113;BME280;45999;48.808;9.182;2024-01-30T03:30:31;99413.50;;;2.47;100.00
113;BME280;45999;48.808;9.182;2024-01-30T03:32:57;99412.66;;;2.47;100.00
113;BME280;45999;48.808;9.182;2024-01-30T03:35:24;99412.53;;;2.48;100.00
113;BME280;45999;48.808;9.182;2024-01-30T03:37:50;99422.72;;;2.42;100.00
113;BME280;45999;48.808;9.182;2024-01-30T03:40:17;99418.72;;;2.38;100.00
113;BME280;45999;48.808;9.182;2024-01-30T03:42:44;99413.63;;;2.36;100.00
113;BME280;45999;48.808;9.182;2024-01-30T03:45:10;99413.91;;;2.43;100.00
113;BME280;45999;48.808;9.182;2024-01-30T03:47:36;99414.84;;;2.42;100.00
113;BME280;45999;48.808;9.182;2024-01-30T03:50:03;99419.69;;;2.37;100.00
113;BME280;45999;48.808;9.182;2024-01-30T03:52:30;99416.25;;;2.46;100.00
113;BME280;45999;48.808;9.182;2024-01-30T03:54:56;99413.22;;;2.50;100.00
113;BME280;45999;48.808;9.182;2024-01-30T03:57:23;99421.50;;;2.46;100.00
113;BME280;45999;48.808;9.182;2024-01-30T03:59:49;99423.44;;;2.44;100.00
113;BME280;45999;48.808;9.182;2024-01-30T04:02:15;99420.41;;;2.39;100.00
113;BME280;45999;48.808;9.182;2024-01-30T04:04:43;99422.47;;;2.45;100.00
113;BME280;45999;48.808;9.182;2024-01-30T04:07:09;99418.19;;;2.44;100.00
113;BME280;45999;48.808;9.182;2024-01-30T04:09:35;99418.59;;;2.39;100.00
113;BME280;45999;48.808;9.182;2024-01-30T04:12:02;99419.50;;;2.29;100.00
113;BME280;45999;48.808;9.182;2024-01-30T04:14:28;99423.41;;;2.34;100.00
113;BME280;45999;48.808;9.182;2024-01-30T04:16:55;99416.09;;;2.38;100.00
113;BME280;45999;48.808;9.182;2024-01-30T04:19:21;99417.66;;;2.50;100.00
113;BME280;45999;48.808;9.182;2024-01-30T04:21:47;99421.13;;;2.50;100.00
113;BME280;45999;48.808;9.182;2024-01-30T04:24:14;99417.50;;;2.51;100.00
113;BME280;45999;48.808;9.182;2024-01-30T04:26:42;99408.78;;;2.51;100.00
113;BME280;45999;48.808;9.182;2024-01-30T04:29:08;99407.41;;;2.47;100.00
113;BME280;45999;48.808;9.182;2024-01-30T04:31:36;99413.75;;;2.44;100.00
113;BME280;45999;48.808;9.182;2024-01-30T04:34:02;99414.59;;;2.45;100.00
113;BME280;45999;48.808;9.182;2024-01-30T04:36:29;99408.50;;;2.44;100.00
113;BME280;45999;48.808;9.182;2024-01-30T04:38:55;99409.59;;;2.42;100.00
113;BME280;45999;48.808;9.182;2024-01-30T04:41:21;99409.59;;;2.42;100.00
113;BME280;45999;48.808;9.182;2024-01-30T04:43:48;99410.72;;;2.39;100.00
113;BME280;45999;48.808;9.182;2024-01-30T04:46:14;99410.03;;;2.37;100.00
113;BME280;45999;48.808;9.182;2024-01-30T04:48:40;99412.81;;;2.55;100.00
113;BME280;45999;48.808;9.182;2024-01-30T04:51:07;99412.56;;;2.58;100.00
113;BME280;45999;48.808;9.182;2024-01-30T04:53:33;99416.00;;;2.49;100.00
113;BME280;45999;48.808;9.182;2024-01-30T04:55:59;99412.81;;;2.45;100.00
113;BME280;45999;48.808;9.182;2024-01-30T04:58:26;99415.69;;;2.42;100.00
113;BME280;45999;48.808;9.182;2024-01-30T05:00:52;99419.16;;;2.43;100.00
113;BME280;45999;48.808;9.182;2024-01-30T05:03:19;99414.84;;;2.42;100.00
113;BME280;45999;48.808;9.182;2024-01-30T05:05:47;99419.16;;;2.43;100.00
113;BME280;45999;48.808;9.182;2024-01-30T05:08:14;99422.84;;;2.40;100.00
113;BME280;45999;48.808;9.182;2024-01-30T05:10:40;99418.28;;;2.33;100.00
113;BME280;45999;48.808;9.182;2024-01-30T05:13:07;99423.97;;;2.38;100.00
113;BME280;45999;48.808;9.182;2024-01-30T05:15:33;99421.63;;;2.35;100.00
113;BME280;45999;48.808;9.182;2024-01-30T05:17:59;99423.66;;;2.31;100.00
113;BME280;45999;48.808;9.182;2024-01-30T05:20:26;99424.94;;;2.27;100.00
113;BME280;45999;48.808;9.182;2024-01-30T05:22:53;99418.69;;;2.28;100.00
113;BME280;45999;48.808;9.182;2024-01-30T05:25:19;99422.72;;;2.32;100.00
113;BME280;45999;48.808;9.182;2024-01-30T05:27:46;99425.72;;;2.28;100.00
113;BME280;45999;48.808;9.182;2024-01-30T05:30:12;99418.41;;;2.31;100.00
113;BME280;45999;48.808;9.182;2024-01-30T05:32:39;99428.09;;;2.31;100.00
113;BME280;45999;48.808;9.182;2024-01-30T05:35:05;99428.66;;;2.34;100.00
113;BME280;45999;48.808;9.182;2024-01-30T05:37:33;99421.03;;;2.22;100.00
113;BME280;45999;48.808;9.182;2024-01-30T05:39:59;99433.06;;;2.24;100.00
113;BME280;45999;48.808;9.182;2024-01-30T05:42:26;99435.53;;;2.26;100.00
113;BME280;45999;48.808;9.182;2024-01-30T05:44:53;99434.72;;;2.25;100.00
113;BME280;45999;48.808;9.182;2024-01-30T05:47:19;99439.41;;;2.31;100.00
113;BME280;45999;48.808;9.182;2024-01-30T05:49:45;99435.72;;;2.34;100.00
113;BME280;45999;48.808;9.182;2024-01-30T05:52:12;99433.50;;;2.39;100.00
113;BME280;45999;48.808;9.182;2024-01-30T05:54:38;99441.91;;;2.33;100.00
113;BME280;45999;48.808;9.182;2024-01-30T05:57:05;99444.41;;;2.34;100.00
113;BME280;45999;48.808;9.182;2024-01-30T05:59:31;99439.69;;;2.38;100.00
113;BME280;45999;48.808;9.182;2024-01-30T06:01:58;99442.19;;;2.39;100.00
113;BME280;45999;48.808;9.182;2024-01-30T06:04:24;99441.22;;;2.40;100.00
113;BME280;45999;48.808;9.182;2024-01-30T06:06:50;99436.78;;;2.31;100.00
113;BME280;45999;48.808;9.182;2024-01-30T06:09:17;99443.31;;;2.37;100.00
113;BME280;45999;48.808;9.182;2024-01-30T06:11:43;99440.53;;;2.38;100.00
113;BME280;45999;48.808;9.182;2024-01-30T06:14:10;99435.03;;;2.41;100.00
113;BME280;45999;48.808;9.182;2024-01-30T06:16:36;99439.88;;;2.36;100.00
113;BME280;45999;48.808;9.182;2024-01-30T06:19:02;99438.06;;;2.37;100.00
113;BME280;45999;48.808;9.182;2024-01-30T06:21:29;99431.28;;;2.34;100.00
113;BME280;45999;48.808;9.182;2024-01-30T06:23:55;99435.97;;;2.31;100.00
113;BME280;45999;48.808;9.182;2024-01-30T06:26:22;99433.59;;;2.28;100.00
113;BME280;45999;48.808;9.182;2024-01-30T06:28:48;99442.31;;;2.28;100.00
113;BME280;45999;48.808;9.182;2024-01-30T06:31:14;99438.84;;;2.28;100.00
113;BME280;45999;48.808;9.182;2024-01-30T06:33:41;99440.78;;;2.26;100.00
113;BME280;45999;48.808;9.182;2024-01-30T06:36:08;99445.91;;;2.27;100.00
113;BME280;45999;48.808;9.182;2024-01-30T06:38:34;99434.44;;;2.28;100.00
113;BME280;45999;48.808;9.182;2024-01-30T06:41:00;99440.78;;;2.26;100.00
113;BME280;45999;48.808;9.182;2024-01-30T06:43:27;99446.03;;;2.26;100.00
113;BME280;45999;48.808;9.182;2024-01-30T06:45:53;99444.81;;;2.30;100.00
113;BME280;45999;48.808;9.182;2024-01-30T06:48:19;99441.59;;;2.26;100.00
113;BME280;45999;48.808;9.182;2024-01-30T06:50:46;99437.88;;;2.29;100.00
113;BME280;45999;48.808;9.182;2024-01-30T06:53:14;99445.91;;;2.27;100.00
113;BME280;45999;48.808;9.182;2024-01-30T06:55:40;99436.09;;;2.29;100.00
113;BME280;45999;48.808;9.182;2024-01-30T06:58:07;99444.66;;;2.31;100.00
113;BME280;45999;48.808;9.182;2024-01-30T07:00:33;99445.75;;;2.29;100.00
113;BME280;45999;48.808;9.182;2024-01-30T07:02:59;99451.72;;;2.31;100.00
113;BME280;45999;48.808;9.182;2024-01-30T07:05:26;99452.81;;;2.28;100.00
113;BME280;45999;48.808;9.182;2024-01-30T07:07:52;99453.38;;;2.32;100.00
113;BME280;45999;48.808;9.182;2024-01-30T07:10:18;99453.00;;;2.36;100.00
113;BME280;45999;48.808;9.182;2024-01-30T07:12:45;99460.69;;;2.38;100.00
113;BME280;45999;48.808;9.182;2024-01-30T07:15:11;99464.03;;;2.40;100.00
113;BME280;45999;48.808;9.182;2024-01-30T07:17:41;99459.75;;;2.39;100.00
113;BME280;45999;48.808;9.182;2024-01-30T07:20:08;99461.00;;;2.44;100.00
113;BME280;45999;48.808;9.182;2024-01-30T07:22:34;99463.50;;;2.46;100.00
113;BME280;45999;48.808;9.182;2024-01-30T07:25:01;99466.84;;;2.48;100.00
113;BME280;45999;48.808;9.182;2024-01-30T07:27:27;99458.00;;;2.49;100.00
113;BME280;45999;48.808;9.182;2024-01-30T07:29:53;99456.63;;;2.54;100.00
113;BME280;45999;48.808;9.182;2024-01-30T07:32:20;99459.50;;;2.61;100.00
113;BME280;45999;48.808;9.182;2024-01-30T07:34:46;99460.50;;;2.60;100.00
113;BME280;45999;48.808;9.182;2024-01-30T07:37:12;99462.44;;;2.67;100.00
113;BME280;45999;48.808;9.182;2024-01-30T07:39:40;99464.66;;;2.72;100.00
113;BME280;45999;48.808;9.182;2024-01-30T07:42:07;99459.41;;;2.72;100.00
113;BME280;45999;48.808;9.182;2024-01-30T07:44:34;99459.84;;;2.77;100.00
113;BME280;45999;48.808;9.182;2024-01-30T07:47:00;99466.06;;;2.76;100.00
113;BME280;45999;48.808;9.182;2024-01-30T07:49:28;99462.63;;;2.85;100.00
113;BME280;45999;48.808;9.182;2024-01-30T07:51:54;99468.56;;;2.87;100.00
113;BME280;45999;48.808;9.182;2024-01-30T07:54:20;99468.56;;;2.87;100.00
113;BME280;45999;48.808;9.182;2024-01-30T07:56:47;99469.81;;;2.92;100.00
113;BME280;45999;48.808;9.182;2024-01-30T07:59:13;99466.38;;;3.01;100.00
113;BME280;45999;48.808;9.182;2024-01-30T08:01:39;99471.34;;;3.04;100.00
113;BME280;45999;48.808;9.182;2024-01-30T08:04:06;99477.16;;;3.08;100.00
113;BME280;45999;48.808;9.182;2024-01-30T08:06:32;99482.81;;;3.13;100.00
113;BME280;45999;48.808;9.182;2024-01-30T08:08:59;99477.97;;;3.18;100.00
113;BME280;45999;48.808;9.182;2024-01-30T08:11:25;99468.28;;;3.28;100.00
113;BME280;45999;48.808;9.182;2024-01-30T08:13:53;99468.72;;;3.42;100.00
113;BME280;45999;48.808;9.182;2024-01-30T08:16:20;99466.94;;;3.43;100.00
113;BME280;45999;48.808;9.182;2024-01-30T08:18:46;99474.09;;;3.50;100.00
113;BME280;45999;48.808;9.182;2024-01-30T08:21:12;99466.63;;;3.55;100.00
113;BME280;45999;48.808;9.182;2024-01-30T08:23:39;99473.38;;;3.67;100.00
113;BME280;45999;48.808;9.182;2024-01-30T08:26:06;99465.75;;;3.74;100.00
113;BME280;45999;48.808;9.182;2024-01-30T08:28:32;99467.69;;;3.81;100.00
113;BME280;45999;48.808;9.182;2024-01-30T08:30:59;99473.63;;;3.93;100.00
113;BME280;45999;48.808;9.182;2024-01-30T08:33:25;99474.41;;;4.03;100.00
113;BME280;45999;48.808;9.182;2024-01-30T08:35:51;99473.53;;;4.12;100.00
113;BME280;45999;48.808;9.182;2024-01-30T08:38:18;99469.53;;;4.17;100.00
113;BME280;45999;48.808;9.182;2024-01-30T08:40:44;99474.72;;;4.27;100.00
113;BME280;45999;48.808;9.182;2024-01-30T08:43:10;99477.06;;;4.30;100.00
113;BME280;45999;48.808;9.182;2024-01-30T08:45:37;99480.78;;;4.37;100.00
113;BME280;45999;48.808;9.182;2024-01-30T08:48:04;99473.69;;;4.47;100.00
113;BME280;45999;48.808;9.182;2024-01-30T08:50:30;99477.91;;;4.57;100.00
113;BME280;45999;48.808;9.182;2024-01-30T08:52:57;99481.50;;;4.56;100.00
113;BME280;45999;48.808;9.182;2024-01-30T08:55:23;99474.06;;;4.52;100.00
113;BME280;45999;48.808;9.182;2024-01-30T08:57:49;99477.91;;;4.57;100.00
113;BME280;45999;48.808;9.182;2024-01-30T09:00:17;99483.03;;;4.59;100.00
113;BME280;45999;48.808;9.182;2024-01-30T09:02:43;99478.28;;;4.62;100.00
113;BME280;45999;48.808;9.182;2024-01-30T09:05:10;99479.13;;;4.63;100.00
113;BME280;45999;48.808;9.182;2024-01-30T09:07:36;99485.47;;;4.70;100.00
113;BME280;45999;48.808;9.182;2024-01-30T09:10:03;99489.75;;;4.71;100.00
113;BME280;45999;48.808;9.182;2024-01-30T09:12:30;99488.88;;;4.80;100.00
113;BME280;45999;48.808;9.182;2024-01-30T09:14:56;99499.69;;;4.77;100.00
113;BME280;45999;48.808;9.182;2024-01-30T09:17:22;99503.03;;;4.79;100.00
113;BME280;45999;48.808;9.182;2024-01-30T09:19:49;99501.03;;;4.90;100.00
113;BME280;45999;48.808;9.182;2024-01-30T09:22:15;99505.06;;;4.85;100.00
113;BME280;45999;48.808;9.182;2024-01-30T09:24:41;99497.69;;;4.88;100.00
113;BME280;45999;48.808;9.182;2024-01-30T09:27:08;99502.59;;;5.01;100.00
113;BME280;45999;48.808;9.182;2024-01-30T09:29:35;99505.66;;;5.23;100.00
113;BME280;45999;48.808;9.182;2024-01-30T09:32:01;99507.22;;;5.34;100.00
113;BME280;45999;48.808;9.182;2024-01-30T09:34:28;99499.09;;;5.45;100.00
113;BME280;45999;48.808;9.182;2024-01-30T09:36:54;99508.50;;;5.47;100.00
113;BME280;45999;48.808;9.182;2024-01-30T09:39:21;99501.09;;;5.51;100.00
113;BME280;45999;48.808;9.182;2024-01-30T09:41:58;99501.25;;;5.67;100.00
113;BME280;45999;48.808;9.182;2024-01-30T09:44:29;99498.16;;;5.71;100.00
113;BME280;45999;48.808;9.182;2024-01-30T09:46:55;99508.66;;;5.81;100.00
113;BME280;45999;48.808;9.182;2024-01-30T09:49:24;99495.03;;;5.93;100.00
113;BME280;45999;48.808;9.182;2024-01-30T09:51:51;99497.66;;;5.93;100.00
113;BME280;45999;48.808;9.182;2024-01-30T09:54:19;99503.00;;;6.01;100.00
113;BME280;45999;48.808;9.182;2024-01-30T09:56:47;99502.97;;;6.19;100.00
113;BME280;45999;48.808;9.182;2024-01-30T09:59:14;99507.94;;;6.22;100.00
113;BME280;45999;48.808;9.182;2024-01-30T10:01:42;99503.34;;;6.32;100.00
113;BME280;45999;48.808;9.182;2024-01-30T10:04:09;99506.56;;;6.43;100.00
113;BME280;45999;48.808;9.182;2024-01-30T10:06:35;99509.41;;;6.50;100.00
113;BME280;45999;48.808;9.182;2024-01-30T10:09:02;99513.28;;;6.63;100.00
113;BME280;45999;48.808;9.182;2024-01-30T10:11:29;99502.56;;;6.73;100.00
113;BME280;45999;48.808;9.182;2024-01-30T10:13:56;99511.03;;;6.84;100.00
113;BME280;45999;48.808;9.182;2024-01-30T10:16:22;99511.56;;;6.96;100.00
113;BME280;45999;48.808;9.182;2024-01-30T10:18:49;99505.63;;;6.94;100.00
113;BME280;45999;48.808;9.182;2024-01-30T10:21:15;99503.63;;;6.96;100.00
113;BME280;45999;48.808;9.182;2024-01-30T10:23:43;99506.63;;;7.09;100.00
113;BME280;45999;48.808;9.182;2024-01-30T10:26:10;99502.53;;;7.22;100.00
113;BME280;45999;48.808;9.182;2024-01-30T10:28:37;99503.22;;;7.16;100.00
113;BME280;45999;48.808;9.182;2024-01-30T10:31:03;99498.06;;;7.15;100.00
113;BME280;45999;48.808;9.182;2024-01-30T10:33:30;99502.06;;;7.19;100.00
113;BME280;45999;48.808;9.182;2024-01-30T10:36:01;99498.72;;;7.17;100.00
113;BME280;45999;48.808;9.182;2024-01-30T10:38:29;99495.41;;;7.23;100.00
113;BME280;45999;48.808;9.182;2024-01-30T10:40:56;99495.94;;;7.26;100.00
113;BME280;45999;48.808;9.182;2024-01-30T10:43:47;99489.16;;;7.32;100.00
113;BME280;45999;48.808;9.182;2024-01-30T10:46:19;99484.53;;;7.50;100.00
113;BME280;45999;48.808;9.182;2024-01-30T10:48:58;99486.03;;;7.52;100.00
113;BME280;45999;48.808;9.182;2024-01-30T10:51:26;99481.56;;;7.53;100.00
113;BME280;45999;48.808;9.182;2024-01-30T10:53:53;99482.06;;;7.56;100.00
113;BME280;45999;48.808;9.182;2024-01-30T10:56:23;99480.22;;;7.73;100.00
113;BME280;45999;48.808;9.182;2024-01-30T10:58:53;99474.44;;;7.61;100.00
113;BME280;45999;48.808;9.182;2024-01-30T11:01:25;99481.06;;;7.65;100.00
113;BME280;45999;48.808;9.182;2024-01-30T11:03:54;99471.81;;;7.77;100.00
113;BME280;45999;48.808;9.182;2024-01-30T11:06:22;99476.44;;;7.83;100.00
113;BME280;45999;48.808;9.182;2024-01-30T11:09:03;99473.47;;;7.86;100.00
113;BME280;45999;48.808;9.182;2024-01-30T11:11:51;99470.28;;;7.99;100.00
113;BME280;45999;48.808;9.182;2024-01-30T11:14:24;99473.75;;;8.07;100.00
113;BME280;45999;48.808;9.182;2024-01-30T11:16:51;99480.34;;;8.19;100.00
113;BME280;45999;48.808;9.182;2024-01-30T11:19:26;99478.00;;;8.40;100.00
113;BME280;45999;48.808;9.182;2024-01-30T11:21:54;99477.09;;;8.64;100.00
113;BME280;45999;48.808;9.182;2024-01-30T11:24:25;99475.66;;;8.45;100.00
113;BME280;45999;48.808;9.182;2024-01-30T11:26:58;99475.69;;;8.37;100.00
113;BME280;45999;48.808;9.182;2024-01-30T11:29:27;99479.78;;;8.48;100.00
113;BME280;45999;48.808;9.182;2024-01-30T11:31:54;99471.66;;;8.57;100.00
113;BME280;45999;48.808;9.182;2024-01-30T11:34:21;99470.78;;;8.65;100.00
113;BME280;45999;48.808;9.182;2024-01-30T11:36:52;99470.19;;;8.55;100.00
113;BME280;45999;48.808;9.182;2024-01-30T11:39:28;99465.84;;;8.54;100.00
113;BME280;45999;48.808;9.182;2024-01-30T11:41:55;99467.53;;;8.55;100.00
113;BME280;45999;48.808;9.182;2024-01-30T11:44:23;99468.63;;;8.60;100.00
113;BME280;45999;48.808;9.182;2024-01-30T11:46:50;99458.69;;;8.70;100.00
113;BME280;45999;48.808;9.182;2024-01-30T11:49:17;99468.03;;;8.81;100.00
113;BME280;45999;48.808;9.182;2024-01-30T11:51:47;99459.16;;;8.74;100.00
113;BME280;45999;48.808;9.182;2024-01-30T11:54:14;99459.03;;;8.90;100.00
113;BME280;45999;48.808;9.182;2024-01-30T11:56:42;99454.41;;;8.92;100.00
113;BME280;45999;48.808;9.182;2024-01-30T11:59:09;99449.25;;;8.98;100.00
113;BME280;45999;48.808;9.182;2024-01-30T12:01:36;99445.75;;;8.98;100.00
113;BME280;45999;48.808;9.182;2024-01-30T12:04:02;99448.22;;;8.99;100.00
113;BME280;45999;48.808;9.182;2024-01-30T12:06:33;99448.69;;;9.03;100.00
113;BME280;45999;48.808;9.182;2024-01-30T12:09:03;99434.75;;;9.09;100.00
113;BME280;45999;48.808;9.182;2024-01-30T12:11:48;99432.84;;;9.17;100.00
113;BME280;45999;48.808;9.182;2024-01-30T12:14:21;99433.66;;;9.18;100.00
113;BME280;45999;48.808;9.182;2024-01-30T12:16:55;99435.75;;;9.30;100.00
113;BME280;45999;48.808;9.182;2024-01-30T12:19:27;99433.72;;;9.32;100.00
113;BME280;45999;48.808;9.182;2024-01-30T12:22:01;99430.44;;;9.30;100.00
113;BME280;45999;48.808;9.182;2024-01-30T12:24:36;99422.44;;;9.38;100.00
113;BME280;45999;48.808;9.182;2024-01-30T12:27:08;99424.69;;;9.41;100.00
113;BME280;45999;48.808;9.182;2024-01-30T12:29:43;99416.84;;;9.48;100.00
113;BME280;45999;48.808;9.182;2024-01-30T12:32:18;99424.00;;;9.47;100.00
113;BME280;45999;48.808;9.182;2024-01-30T12:34:50;99418.72;;;9.62;100.00
113;BME280;45999;48.808;9.182;2024-01-30T12:37:27;99409.38;;;9.66;100.00
113;BME280;45999;48.808;9.182;2024-01-30T12:39:59;99420.94;;;9.73;100.00
113;BME280;45999;48.808;9.182;2024-01-30T12:42:30;99413.97;;;9.72;100.00
113;BME280;45999;48.808;9.182;2024-01-30T12:44:59;99406.31;;;9.77;100.00
113;BME280;45999;48.808;9.182;2024-01-30T12:47:27;99409.41;;;9.95;100.00
113;BME280;45999;48.808;9.182;2024-01-30T12:49:58;99410.47;;;10.08;100.00
113;BME280;45999;48.808;9.182;2024-01-30T12:52:24;99411.38;;;10.01;100.00
113;BME280;45999;48.808;9.182;2024-01-30T12:54:51;99418.94;;;10.04;100.00
113;BME280;45999;48.808;9.182;2024-01-30T12:57:18;99423.19;;;9.98;100.00
113;BME280;45999;48.808;9.182;2024-01-30T12:59:45;99413.75;;;10.10;100.00
113;BME280;45999;48.808;9.182;2024-01-30T13:02:13;99409.28;;;10.11;100.00
113;BME280;45999;48.808;9.182;2024-01-30T13:04:40;99422.31;;;10.20;100.00
113;BME280;45999;48.808;9.182;2024-01-30T13:07:06;99415.53;;;10.18;100.00
113;BME280;45999;48.808;9.182;2024-01-30T13:09:33;99418.66;;;10.36;100.00
113;BME280;45999;48.808;9.182;2024-01-30T13:11:59;99417.44;;;10.38;83.07
113;BME280;45999;48.808;9.182;2024-01-30T13:14:26;99414.41;;;10.56;81.64
113;BME280;45999;48.808;9.182;2024-01-30T13:16:52;99417.22;;;10.54;80.21
113;BME280;45999;48.808;9.182;2024-01-30T13:19:19;99422.81;;;10.59;80.87
113;BME280;45999;48.808;9.182;2024-01-30T13:21:46;99418.41;;;10.66;81.46